Time,TemperatureF,DewpointF,PressureIn,WindDirection,WindDirectionDegrees,WindSpeedMPH,WindSpeedGustMPH,Humidity,HourlyPrecipIn,Conditions,Clouds,dailyrainin,SoftwareType,DateUTC
2013-04-01 00:01:00,69.2,65.0,30.05,SE,125,0.0,-999.0,86,-99.99,,,0.00,weatherlink.com 1.10,2013-04-01 04:01:00,
2013-04-01 00:46:00,68.3,65.0,30.04,SSE,148,0.0,-999.0,89,-99.99,,,0.00,weatherlink.com 1.10,2013-04-01 04:46:00,
2013-04-01 01:16:00,68.8,66.0,30.03,SSE,149,1.0,-999.0,90,-99.99,,,0.00,weatherlink.com 1.10,2013-04-01 05:16:00,
2013-04-01 01:31:00,69.1,66.0,30.02,South,175,0.0,-999.0,89,-99.99,,,0.00,weatherlink.com 1.10,2013-04-01 05:31:00,
2013-04-01 02:01:00,69.1,66.0,30.01,SSE,157,0.0,-999.0,90,-99.99,,,0.00,weatherlink.com 1.10,2013-04-01 06:01:00,
2013-04-01 02:16:00,69.8,67.0,30.00,SSE,150,4.0,-999.0,91,-99.99,,,0.00,weatherlink.com 1.10,2013-04-01 06:16:00,
2013-04-01 02:31:00,70.8,68.0,30.00,South,188,0.0,-999.0,89,-99.99,,,0.00,weatherlink.com 1.10,2013-04-01 06:31:00,
2013-04-01 02:46:00,71.3,68.0,30.00,SSE,161,4.0,-999.0,88,-99.99,,,0.00,weatherlink.com 1.10,2013-04-01 06:46:00,
2013-04-01 03:16:00,71.6,68.0,29.99,SSE,167,5.0,-999.0,87,-99.99,,,0.00,weatherlink.com 1.10,2013-04-01 07:16:00,
2013-04-01 03:31:00,71.5,68.0,29.99,SSE,161,2.0,-999.0,88,-99.99,,,0.00,weatherlink.com 1.10,2013-04-01 07:31:00,
2013-04-01 03:46:00,71.4,68.0,29.99,South,172,1.0,-999.0,88,-99.99,,,0.00,weatherlink.com 1.10,2013-04-01 07:46:00,
2013-04-01 04:01:00,71.3,68.0,29.99,SSE,168,0.0,-999.0,88,-99.99,,,0.00,weatherlink.com 1.10,2013-04-01 08:01:00,
2013-04-01 04:16:00,71.2,68.0,29.99,SSE,148,4.0,-999.0,89,-99.99,,,0.00,weatherlink.com 1.10,2013-04-01 08:16:00,
2013-04-01 04:46:00,71.4,68.0,29.98,SE,144,1.0,-999.0,89,-99.99,,,0.00,weatherlink.com 1.10,2013-04-01 08:46:00,
2013-04-01 05:01:00,71.2,68.0,29.98,SSE,163,1.0,-999.0,90,-99.99,,,0.00,weatherlink.com 1.10,2013-04-01 09:01:00,
2013-04-01 05:16:00,71.1,68.0,29.98,SSW,192,1.0,-999.0,90,-99.99,,,0.00,weatherlink.com 1.10,2013-04-01 09:16:00,
2013-04-01 05:31:00,71.2,68.0,29.98,SW,215,1.0,-999.0,90,-99.99,,,0.00,weatherlink.com 1.10,2013-04-01 09:31:00,
2013-04-01 05:46:00,71.0,68.0,29.99,SSW,196,0.0,-999.0,90,-99.99,,,0.00,weatherlink.com 1.10,2013-04-01 09:46:00,
2013-04-01 06:01:00,70.8,68.0,29.99,SSE,163,1.0,-999.0,91,-99.99,,,0.00,weatherlink.com 1.10,2013-04-01 10:01:00,
2013-04-01 06:16:00,70.7,68.0,29.99,SSW,194,2.0,-999.0,91,-99.99,,,0.00,weatherlink.com 1.10,2013-04-01 10:16:00,
2013-04-01 06:31:00,70.7,68.0,29.99,South,170,1.0,-999.0,91,-99.99,,,0.00,weatherlink.com 1.10,2013-04-01 10:31:00,
2013-04-01 06:46:00,70.7,68.0,29.99,South,184,1.0,-999.0,91,-99.99,,,0.00,weatherlink.com 1.10,2013-04-01 10:46:00,
2013-04-01 07:01:00,70.5,68.0,30.00,South,178,0.0,-999.0,92,-99.99,,,0.00,weatherlink.com 1.10,2013-04-01 11:01:00,
2013-04-01 07:16:00,70.5,68.0,30.00,South,172,0.0,-999.0,92,-99.99,,,0.00,weatherlink.com 1.10,2013-04-01 11:16:00,
2013-04-01 07:46:00,70.5,68.0,30.01,SSW,205,0.0,-999.0,93,-99.99,,,0.00,weatherlink.com 1.10,2013-04-01 11:46:00,
2013-04-01 08:01:00,71.4,69.0,30.02,SSW,192,0.0,-999.0,93,-99.99,,,0.00,weatherlink.com 1.10,2013-04-01 12:01:00,
2013-04-01 08:16:00,72.4,70.0,30.02,South,190,0.0,-999.0,91,-99.99,,,0.00,weatherlink.com 1.10,2013-04-01 12:16:00,
2013-04-01 08:31:00,73.9,71.0,30.03,SSW,205,0.0,-999.0,89,-99.99,,,0.00,weatherlink.com 1.10,2013-04-01 12:31:00,
2013-04-01 08:47:00,75.0,71.0,30.04,SSW,200,0.0,-999.0,87,-99.99,,,0.00,weatherlink.com 1.10,2013-04-01 12:47:00,
2013-04-01 09:02:00,75.9,71.0,30.04,South,169,5.0,-999.0,85,-99.99,,,0.00,weatherlink.com 1.10,2013-04-01 13:02:00,
2013-04-01 09:17:00,77.0,72.0,30.04,SW,234,8.0,-999.0,83,-99.99,,,0.00,weatherlink.com 1.10,2013-04-01 13:17:00,
2013-04-01 09:33:00,77.8,71.0,30.04,SSW,202,4.0,-999.0,80,-99.99,,,0.00,weatherlink.com 1.10,2013-04-01 13:33:00,
2013-04-01 09:47:00,77.6,71.0,30.04,SW,222,2.0,-999.0,81,-99.99,,,0.00,weatherlink.com 1.10,2013-04-01 13:47:00,
2013-04-01 10:02:00,78.7,71.0,30.04,SE,130,2.0,-999.0,78,-99.99,,,0.00,weatherlink.com 1.10,2013-04-01 14:02:00,
2013-04-01 10:18:00,80.7,71.0,30.04,SSW,205,3.0,-999.0,71,-99.99,,,0.00,weatherlink.com 1.10,2013-04-01 14:18:00,
2013-04-01 10:33:00,81.5,70.0,30.03,SSW,192,8.0,-999.0,68,-99.99,,,0.00,weatherlink.com 1.10,2013-04-01 14:33:00,
2013-04-01 10:47:00,82.3,69.0,30.04,SSW,192,5.0,-999.0,65,-99.99,,,0.00,weatherlink.com 1.10,2013-04-01 14:47:00,
2013-04-01 11:03:00,82.9,67.0,30.04,SSE,155,2.0,-999.0,59,-99.99,,,0.00,weatherlink.com 1.10,2013-04-01 15:03:00,
2013-04-01 11:18:00,83.7,67.0,30.03,SW,227,1.0,-999.0,58,-99.99,,,0.00,weatherlink.com 1.10,2013-04-01 15:18:00,
2013-04-01 11:32:00,83.2,64.0,30.03,SW,217,3.0,-999.0,53,-99.99,,,0.00,weatherlink.com 1.10,2013-04-01 15:32:00,
2013-04-01 11:48:00,83.7,66.0,30.03,WSW,237,1.0,-999.0,56,-99.99,,,0.00,weatherlink.com 1.10,2013-04-01 15:48:00,
2013-04-01 12:03:00,84.8,66.0,30.03,SSW,196,1.0,-999.0,53,-99.99,,,0.00,weatherlink.com 1.10,2013-04-01 16:03:00,
2013-04-01 12:17:00,85.7,67.0,30.03,West,260,0.0,-999.0,53,-99.99,,,0.00,weatherlink.com 1.10,2013-04-01 16:17:00,
2013-04-01 12:32:00,85.4,67.0,30.02,WSW,257,4.0,-999.0,54,-99.99,,,0.00,weatherlink.com 1.10,2013-04-01 16:32:00,
2013-04-01 12:48:00,86.4,67.0,30.01,WSW,253,1.0,-999.0,52,-99.99,,,0.00,weatherlink.com 1.10,2013-04-01 16:48:00,
2013-04-01 13:02:00,86.5,66.0,30.01,WSW,256,1.0,-999.0,51,-99.99,,,0.00,weatherlink.com 1.10,2013-04-01 17:02:00,
2013-04-01 13:18:00,84.3,66.0,30.02,SSE,156,6.0,-999.0,55,-99.99,,,0.00,weatherlink.com 1.10,2013-04-01 17:18:00,
2013-04-01 13:33:00,83.0,66.0,30.02,SSW,210,8.0,-999.0,56,-99.99,,,0.00,weatherlink.com 1.10,2013-04-01 17:33:00,
2013-04-01 13:48:00,84.8,67.0,30.01,South,187,1.0,-999.0,56,-99.99,,,0.00,weatherlink.com 1.10,2013-04-01 17:48:00,
2013-04-01 14:03:00,86.5,66.0,29.99,SSE,161,0.0,-999.0,50,-99.99,,,0.00,weatherlink.com 1.10,2013-04-01 18:03:00,
2013-04-01 14:18:00,87.3,66.0,29.98,SSW,196,4.0,-999.0,50,-99.99,,,0.00,weatherlink.com 1.10,2013-04-01 18:18:00,
2013-04-01 14:33:00,86.6,64.0,29.98,WNW,288,1.0,-999.0,47,-99.99,,,0.00,weatherlink.com 1.10,2013-04-01 18:33:00,
2013-04-01 14:48:00,85.8,64.0,29.97,South,186,0.0,-999.0,49,-99.99,,,0.00,weatherlink.com 1.10,2013-04-01 18:48:00,
2013-04-01 15:02:00,87.4,65.0,29.96,SSW,198,2.0,-999.0,48,-99.99,,,0.00,weatherlink.com 1.10,2013-04-01 19:02:00,
2013-04-01 15:18:00,88.6,66.0,29.96,SE,140,4.0,-999.0,47,-99.99,,,0.00,weatherlink.com 1.10,2013-04-01 19:18:00,
2013-04-01 15:33:00,88.3,64.0,29.96,WSW,237,3.0,-999.0,45,-99.99,,,0.00,weatherlink.com 1.10,2013-04-01 19:33:00,
2013-04-01 15:48:00,88.8,65.0,29.95,SW,225,3.0,-999.0,46,-99.99,,,0.00,weatherlink.com 1.10,2013-04-01 19:48:00,
2013-04-01 16:02:00,89.1,64.0,29.95,SSW,209,1.0,-999.0,44,-99.99,,,0.00,weatherlink.com 1.10,2013-04-01 20:02:00,
2013-04-01 16:18:00,89.4,63.0,29.95,South,189,4.0,-999.0,41,-99.99,,,0.00,weatherlink.com 1.10,2013-04-01 20:18:00,
2013-04-01 16:33:00,83.4,66.0,29.94,SSW,192,5.0,-999.0,55,-99.99,,,0.00,weatherlink.com 1.10,2013-04-01 20:33:00,
2013-04-01 16:48:00,81.5,66.0,29.93,SSW,207,4.0,-999.0,60,-99.99,,,0.00,weatherlink.com 1.10,2013-04-01 20:48:00,
2013-04-01 17:03:00,80.5,67.0,29.93,SSE,168,7.0,-999.0,63,-99.99,,,0.00,weatherlink.com 1.10,2013-04-01 21:03:00,
2013-04-01 17:17:00,79.6,67.0,29.93,SSE,161,7.0,-999.0,65,-99.99,,,0.00,weatherlink.com 1.10,2013-04-01 21:17:00,
2013-04-01 17:33:00,78.9,67.0,29.94,South,190,2.0,-999.0,66,-99.99,,,0.00,weatherlink.com 1.10,2013-04-01 21:33:00,
2013-04-01 17:48:00,79.1,65.0,29.94,SSE,165,6.0,-999.0,62,-99.99,,,0.00,weatherlink.com 1.10,2013-04-01 21:48:00,
2013-04-01 18:03:00,79.2,65.0,29.95,SW,230,2.0,-999.0,62,-99.99,,,0.00,weatherlink.com 1.10,2013-04-01 22:03:00,
2013-04-01 18:17:00,79.2,65.0,29.95,SSE,165,0.0,-999.0,63,-99.99,,,0.00,weatherlink.com 1.10,2013-04-01 22:17:00,
2013-04-01 18:32:00,79.1,66.0,29.95,SSW,209,2.0,-999.0,65,-99.99,,,0.00,weatherlink.com 1.10,2013-04-01 22:32:00,
2013-04-01 18:48:00,78.8,67.0,29.95,SW,232,1.0,-999.0,67,-99.99,,,0.00,weatherlink.com 1.10,2013-04-01 22:48:00,
2013-04-01 19:03:00,78.3,67.0,29.95,South,169,0.0,-999.0,68,-99.99,,,0.00,weatherlink.com 1.10,2013-04-01 23:03:00,
2013-04-01 19:18:00,77.7,67.0,29.96,SSW,203,0.0,-999.0,70,-99.99,,,0.00,weatherlink.com 1.10,2013-04-01 23:18:00,
2013-04-01 19:32:00,77.3,67.0,29.96,SSW,209,1.0,-999.0,71,-99.99,,,0.00,weatherlink.com 1.10,2013-04-01 23:32:00,
2013-04-01 19:47:00,76.7,67.0,29.96,WSW,248,0.0,-999.0,72,-99.99,,,0.00,weatherlink.com 1.10,2013-04-01 23:47:00,
2013-04-01 20:03:00,76.0,67.0,29.97,SW,214,0.0,-999.0,73,-99.99,,,0.00,weatherlink.com 1.10,2013-04-02 00:03:00,
2013-04-01 20:17:00,75.7,67.0,29.97,WSW,237,0.0,-999.0,74,-99.99,,,0.00,weatherlink.com 1.10,2013-04-02 00:17:00,
2013-04-01 20:32:00,75.2,67.0,29.97,SSW,195,0.0,-999.0,76,-99.99,,,0.00,weatherlink.com 1.10,2013-04-02 00:32:00,
2013-04-01 20:48:00,74.7,67.0,29.98,SE,144,0.0,-999.0,77,-99.99,,,0.00,weatherlink.com 1.10,2013-04-02 00:48:00,
2013-04-01 21:03:00,74.3,66.0,29.98,SSW,204,0.0,-999.0,76,-99.99,,,0.00,weatherlink.com 1.10,2013-04-02 01:03:00,
2013-04-01 21:18:00,74.0,66.0,29.99,WSW,238,0.0,-999.0,76,-99.99,,,0.00,weatherlink.com 1.10,2013-04-02 01:18:00,
2013-04-01 21:33:00,73.7,66.0,30.00,SW,219,0.0,-999.0,77,-99.99,,,0.00,weatherlink.com 1.10,2013-04-02 01:33:00,
2013-04-01 21:48:00,73.3,66.0,30.00,SSE,165,0.0,-999.0,79,-99.99,,,0.00,weatherlink.com 1.10,2013-04-02 01:48:00,
2013-04-01 22:03:00,72.5,66.0,30.00,SSW,202,0.0,-999.0,81,-99.99,,,0.00,weatherlink.com 1.10,2013-04-02 02:03:00,
2013-04-01 22:18:00,72.1,66.0,30.01,SSW,194,0.0,-999.0,81,-99.99,,,0.00,weatherlink.com 1.10,2013-04-02 02:18:00,
2013-04-01 22:33:00,71.8,66.0,30.01,SSW,210,0.0,-999.0,81,-99.99,,,0.00,weatherlink.com 1.10,2013-04-02 02:33:00,
2013-04-01 22:48:00,71.5,65.0,30.01,WSW,254,0.0,-999.0,81,-99.99,,,0.00,weatherlink.com 1.10,2013-04-02 02:48:00,
2013-04-01 23:02:00,71.3,66.0,30.01,WSW,250,0.0,-999.0,82,-99.99,,,0.00,weatherlink.com 1.10,2013-04-02 03:02:00,
2013-04-01 23:18:00,70.8,65.0,30.01,WSW,254,0.0,-999.0,83,-99.99,,,0.00,weatherlink.com 1.10,2013-04-02 03:18:00,
2013-04-01 23:33:00,70.7,65.0,30.01,WNW,287,0.0,-999.0,83,-99.99,,,0.00,weatherlink.com 1.10,2013-04-02 03:33:00,
2013-04-01 23:48:00,70.7,65.0,30.01,West,277,0.0,-999.0,83,-99.99,,,0.00,weatherlink.com 1.10,2013-04-02 03:48:00,